Time,TemperatureF,DewpointF,PressureIn,WindDirection,WindDirectionDegrees,WindSpeedMPH,WindSpeedGustMPH,Humidity,HourlyPrecipIn,Conditions,Clouds,dailyrainin,SolarRadiationWatts/m^2,SoftwareType,DateUTC
2013-03-12 00:02:00,47.0,11.0,-100.00,ENE,77,1.0,4.0,23,0.00,,,0.00,0.000000,,2013-03-12 07:02:00,
2013-03-12 00:32:00,47.0,11.0,-100.00,ENE,77,1.0,4.0,23,0.00,,,0.00,0.000000,,2013-03-12 07:32:00,
2013-03-12 00:42:00,47.0,11.0,-100.00,ENE,77,1.0,4.0,23,0.00,,,0.00,0.000000,,2013-03-12 07:42:00,
2013-03-12 00:52:00,47.0,11.0,-100.00,ENE,77,1.0,4.0,23,0.00,,,0.00,0.000000,,2013-03-12 07:52:00,
2013-03-12 01:02:00,47.0,6.0,-100.00,ENE,76,1.0,3.0,18,0.00,,,0.00,0.000000,,2013-03-12 08:02:00,
2013-03-12 01:33:00,47.0,6.0,-100.00,ENE,76,1.0,3.0,18,0.00,,,0.00,0.000000,,2013-03-12 08:33:00,
2013-03-12 01:42:00,47.0,6.0,-100.00,ENE,76,1.0,3.0,18,0.00,,,0.00,0.000000,,2013-03-12 08:42:00,
2013-03-12 01:52:00,47.0,6.0,-100.00,ENE,76,1.0,3.0,18,0.00,,,0.00,0.000000,,2013-03-12 08:52:00,
2013-03-12 02:22:00,47.0,4.0,-100.00,ESE,107,3.0,4.0,17,0.00,,,0.00,0.000000,,2013-03-12 09:22:00,
2013-03-12 02:33:00,47.0,4.0,-100.00,ESE,107,3.0,4.0,17,0.00,,,0.00,0.000000,,2013-03-12 09:33:00,
2013-03-12 02:42:00,47.0,4.0,-100.00,ESE,107,3.0,4.0,17,0.00,,,0.00,0.000000,,2013-03-12 09:42:00,
2013-03-12 02:52:00,47.0,4.0,-100.00,ESE,107,3.0,4.0,17,0.00,,,0.00,0.000000,,2013-03-12 09:52:00,
2013-03-12 03:33:00,45.0,7.0,-100.00,East,90,3.0,4.0,21,0.00,,,0.00,0.000000,,2013-03-12 10:33:00,
2013-03-12 03:42:00,45.0,7.0,-100.00,East,90,3.0,4.0,21,0.00,,,0.00,0.000000,,2013-03-12 10:42:00,
2013-03-12 03:52:00,45.0,7.0,-100.00,East,90,3.0,4.0,21,0.00,,,0.00,0.000000,,2013-03-12 10:52:00,
2013-03-12 04:01:00,45.0,7.0,-100.00,East,90,3.0,4.0,21,0.00,,,0.00,0.000000,,2013-03-12 11:01:00,
2013-03-12 04:02:00,45.0,8.0,-100.00,East,83,2.0,4.0,22,0.00,,,0.00,0.000000,,2013-03-12 11:02:00,
2013-03-12 04:22:00,45.0,8.0,-100.00,East,83,2.0,4.0,22,0.00,,,0.00,0.000000,,2013-03-12 11:22:00,
2013-03-12 04:32:00,45.0,8.0,-100.00,East,83,2.0,4.0,22,0.00,,,0.00,0.000000,,2013-03-12 11:32:00,
2013-03-12 04:42:00,45.0,8.0,-100.00,East,83,2.0,4.0,22,0.00,,,0.00,0.000000,,2013-03-12 11:42:00,
2013-03-12 04:52:00,45.0,8.0,-100.00,East,83,2.0,4.0,22,0.00,,,0.00,0.000000,,2013-03-12 11:52:00,
2013-03-12 05:32:00,46.0,10.0,-100.00,East,97,2.0,3.0,23,0.00,,,0.00,0.000000,,2013-03-12 12:32:00,
2013-03-12 05:42:00,46.0,10.0,-100.00,East,97,2.0,3.0,23,0.00,,,0.00,0.000000,,2013-03-12 12:42:00,
2013-03-12 05:52:00,46.0,10.0,-100.00,East,97,2.0,3.0,23,0.00,,,0.00,0.000000,,2013-03-12 12:52:00,
2013-03-12 06:01:00,46.0,10.0,-100.00,East,97,2.0,3.0,23,0.00,,,0.00,0.000000,,2013-03-12 13:01:00,
2013-03-12 06:02:00,45.0,11.0,-100.00,East,88,3.0,6.0,25,0.00,,,0.00,0.000000,,2013-03-12 13:02:00,
2013-03-12 06:33:00,45.0,11.0,-100.00,East,88,3.0,6.0,25,0.00,,,0.00,0.000000,,2013-03-12 13:33:00,
2013-03-12 06:43:00,45.0,11.0,-100.00,East,88,3.0,6.0,25,0.00,,,0.00,0.000000,,2013-03-12 13:43:00,
2013-03-12 06:52:00,45.0,11.0,-100.00,East,88,3.0,6.0,25,0.00,,,0.00,0.000000,,2013-03-12 13:52:00,
2013-03-12 07:33:00,46.0,12.0,-100.00,East,86,3.0,5.0,25,0.00,,,0.00,1.000000,,2013-03-12 14:33:00,
2013-03-12 07:42:00,46.0,12.0,-100.00,East,86,3.0,5.0,25,0.00,,,0.00,1.000000,,2013-03-12 14:42:00,
2013-03-12 07:53:00,46.0,12.0,-100.00,East,86,3.0,5.0,25,0.00,,,0.00,1.000000,,2013-03-12 14:53:00,
2013-03-12 08:01:00,46.0,12.0,-100.00,East,86,3.0,5.0,25,0.00,,,0.00,1.000000,,2013-03-12 15:01:00,
2013-03-12 08:02:00,50.0,14.0,-100.00,East,94,3.0,5.0,23,0.00,,,0.00,46.000000,,2013-03-12 15:02:00,
2013-03-12 08:32:00,50.0,14.0,-100.00,East,94,3.0,5.0,23,0.00,,,0.00,46.000000,,2013-03-12 15:32:00,
2013-03-12 08:42:00,50.0,14.0,-100.00,East,94,3.0,5.0,23,0.00,,,0.00,46.000000,,2013-03-12 15:42:00,
2013-03-12 08:53:00,50.0,14.0,-100.00,East,94,3.0,5.0,23,0.00,,,0.00,46.000000,,2013-03-12 15:53:00,
2013-03-12 09:02:00,58.0,18.0,-100.00,NNE,21,4.0,7.0,21,0.00,,,0.00,286.000000,,2013-03-12 16:02:00,
2013-03-12 09:33:00,58.0,18.0,-100.00,NNE,21,4.0,7.0,21,0.00,,,0.00,286.000000,,2013-03-12 16:33:00,
2013-03-12 09:43:00,58.0,18.0,-100.00,NNE,21,4.0,7.0,21,0.00,,,0.00,286.000000,,2013-03-12 16:43:00,
2013-03-12 09:52:00,58.0,18.0,-100.00,NNE,21,4.0,7.0,21,0.00,,,0.00,286.000000,,2013-03-12 16:52:00,
2013-03-12 10:02:00,61.0,17.0,-100.00,NNW,343,4.0,9.0,18,0.00,,,0.00,537.000000,,2013-03-12 17:02:00,
2013-03-12 10:34:00,61.0,17.0,-100.00,NNW,343,4.0,9.0,18,0.00,,,0.00,537.000000,,2013-03-12 17:34:00,
2013-03-12 10:44:00,61.0,17.0,-100.00,NNW,343,4.0,9.0,18,0.00,,,0.00,537.000000,,2013-03-12 17:44:00,
2013-03-12 10:53:00,61.0,17.0,-100.00,NNW,343,4.0,9.0,18,0.00,,,0.00,537.000000,,2013-03-12 17:53:00,
2013-03-12 11:02:00,62.0,19.0,-100.00,WSW,243,5.0,10.0,19,0.00,,,0.00,757.000000,,2013-03-12 18:02:00,
2013-03-12 11:33:00,62.0,19.0,-100.00,WSW,243,5.0,10.0,19,0.00,,,0.00,757.000000,,2013-03-12 18:33:00,
2013-03-12 11:43:00,62.0,19.0,-100.00,WSW,243,5.0,10.0,19,0.00,,,0.00,757.000000,,2013-03-12 18:43:00,
2013-03-12 11:53:00,62.0,19.0,-100.00,WSW,243,5.0,10.0,19,0.00,,,0.00,757.000000,,2013-03-12 18:53:00,
2013-03-12 12:33:00,65.0,19.0,-100.00,NW,316,5.0,11.0,17,0.00,,,0.00,919.000000,,2013-03-12 19:33:00,
2013-03-12 12:43:00,65.0,19.0,-100.00,NW,316,5.0,11.0,17,0.00,,,0.00,919.000000,,2013-03-12 19:43:00,
2013-03-12 12:53:00,65.0,19.0,-100.00,NW,316,5.0,11.0,17,0.00,,,0.00,919.000000,,2013-03-12 19:53:00,
2013-03-12 13:01:00,65.0,19.0,-100.00,NW,316,5.0,11.0,17,0.00,,,0.00,919.000000,,2013-03-12 20:01:00,
2013-03-12 13:02:00,66.0,23.0,-100.00,West,276,6.0,12.0,19,0.00,,,0.00,1010.000000,,2013-03-12 20:02:00,
2013-03-12 13:33:00,66.0,23.0,-100.00,West,276,6.0,12.0,19,0.00,,,0.00,1010.000000,,2013-03-12 20:33:00,
2013-03-12 13:42:00,66.0,23.0,-100.00,West,276,6.0,12.0,19,0.00,,,0.00,1010.000000,,2013-03-12 20:42:00,
2013-03-12 13:53:00,66.0,23.0,-100.00,West,276,6.0,12.0,19,0.00,,,0.00,1010.000000,,2013-03-12 20:53:00,
2013-03-12 14:02:00,68.0,20.0,-100.00,SW,227,8.0,12.0,16,0.00,,,0.00,1024.000000,,2013-03-12 21:02:00,
2013-03-12 14:33:00,68.0,20.0,-100.00,SW,227,8.0,12.0,16,0.00,,,0.00,1024.000000,,2013-03-12 21:33:00,
2013-03-12 14:43:00,68.0,20.0,-100.00,SW,227,8.0,12.0,16,0.00,,,0.00,1024.000000,,2013-03-12 21:43:00,
2013-03-12 14:52:00,68.0,20.0,-100.00,SW,227,8.0,12.0,16,0.00,,,0.00,1024.000000,,2013-03-12 21:52:00,
2013-03-12 15:02:00,71.0,23.0,-100.00,WNW,286,5.0,15.0,16,0.00,,,0.00,962.000000,,2013-03-12 22:02:00,
2013-03-12 15:33:00,71.0,23.0,-100.00,WNW,286,5.0,15.0,16,0.00,,,0.00,962.000000,,2013-03-12 22:33:00,
2013-03-12 15:43:00,71.0,23.0,-100.00,WNW,286,5.0,15.0,16,0.00,,,0.00,962.000000,,2013-03-12 22:43:00,
2013-03-12 15:53:00,71.0,23.0,-100.00,WNW,286,5.0,15.0,16,0.00,,,0.00,962.000000,,2013-03-12 22:53:00,
2013-03-12 16:34:00,71.0,19.0,-100.00,NW,311,5.0,13.0,14,0.00,,,0.00,825.000000,,2013-03-12 23:34:00,
2013-03-12 16:43:00,71.0,19.0,-100.00,NW,311,5.0,13.0,14,0.00,,,0.00,825.000000,,2013-03-12 23:43:00,
2013-03-12 16:52:00,71.0,19.0,-100.00,NW,311,5.0,13.0,14,0.00,,,0.00,825.000000,,2013-03-12 23:52:00,
2013-03-12 17:02:00,70.0,19.0,-100.00,NW,306,6.0,14.0,14,0.00,,,0.00,623.000000,,2013-03-13 00:02:00,
2013-03-12 17:33:00,70.0,19.0,-100.00,NW,306,6.0,14.0,14,0.00,,,0.00,623.000000,,2013-03-13 00:33:00,
2013-03-12 17:42:00,70.0,19.0,-100.00,NW,306,6.0,14.0,14,0.00,,,0.00,623.000000,,2013-03-13 00:42:00,
2013-03-12 17:53:00,70.0,19.0,-100.00,NW,306,6.0,14.0,14,0.00,,,0.00,623.000000,,2013-03-13 00:53:00,
2013-03-12 18:33:00,67.0,18.0,-100.00,NW,321,5.0,11.0,15,0.00,,,0.00,349.000000,,2013-03-13 01:33:00,
2013-03-12 19:33:00,61.0,18.0,-100.00,WSW,255,2.0,7.0,19,0.00,,,0.00,79.000000,,2013-03-13 02:33:00,
2013-03-12 20:02:00,54.0,23.0,-100.00,SSE,157,3.0,4.0,30,0.00,,,0.00,0.000000,,2013-03-13 03:02:00,
2013-03-12 20:32:00,54.0,23.0,-100.00,SSE,157,3.0,4.0,30,0.00,,,0.00,0.000000,,2013-03-13 03:32:00,
2013-03-12 20:42:00,54.0,23.0,-100.00,SSE,157,3.0,4.0,30,0.00,,,0.00,0.000000,,2013-03-13 03:42:00,
2013-03-12 20:52:00,54.0,23.0,-100.00,SSE,157,3.0,4.0,30,0.00,,,0.00,0.000000,,2013-03-13 03:52:00,
2013-03-12 21:32:00,55.0,24.0,-100.00,South,171,4.0,7.0,30,0.00,,,0.00,0.000000,,2013-03-13 04:32:00,
2013-03-12 21:43:00,55.0,24.0,-100.00,South,171,4.0,7.0,30,0.00,,,0.00,0.000000,,2013-03-13 04:43:00,
2013-03-12 21:53:00,55.0,24.0,-100.00,South,171,4.0,7.0,30,0.00,,,0.00,0.000000,,2013-03-13 04:53:00,
2013-03-12 22:01:00,55.0,24.0,-100.00,South,171,4.0,7.0,30,0.00,,,0.00,0.000000,,2013-03-13 05:01:00,
2013-03-12 22:02:00,50.0,21.0,-100.00,ESE,123,3.0,5.0,32,0.00,,,0.00,0.000000,,2013-03-13 05:02:00,
2013-03-12 22:32:00,50.0,21.0,-100.00,ESE,123,3.0,5.0,32,0.00,,,0.00,0.000000,,2013-03-13 05:32:00,
2013-03-12 22:42:00,50.0,21.0,-100.00,ESE,123,3.0,5.0,32,0.00,,,0.00,0.000000,,2013-03-13 05:42:00,
2013-03-12 22:52:00,50.0,21.0,-100.00,ESE,123,3.0,5.0,32,0.00,,,0.00,0.000000,,2013-03-13 05:52:00,
2013-03-12 23:02:00,50.0,21.0,-100.00,East,100,4.0,4.0,31,0.00,,,0.00,0.000000,,2013-03-13 06:02:00,
2013-03-12 23:33:00,50.0,21.0,-100.00,East,100,4.0,4.0,31,0.00,,,0.00,0.000000,,2013-03-13 06:33:00,
2013-03-12 23:42:00,50.0,21.0,-100.00,East,100,4.0,4.0,31,0.00,,,0.00,0.000000,,2013-03-13 06:42:00,
2013-03-12 23:52:00,50.0,21.0,-100.00,East,100,4.0,4.0,31,0.00,,,0.00,0.000000,,2013-03-13 06:52:00,